createdAt,value
2018-07-19T00:02:18.363Z,53.16
2018-07-19T00:04:46.580Z,53.29
2018-07-19T00:07:14.792Z,53.56
2018-07-19T00:09:42.996Z,52.46
2018-07-19T00:12:11.218Z,52.98
2018-07-19T00:14:39.448Z,52.53
2018-07-19T00:17:08.057Z,52.69
2018-07-19T00:19:36.295Z,52.50
2018-07-19T00:22:04.520Z,52.52
2018-07-19T00:24:32.740Z,52.34
2018-07-19T00:27:00.965Z,52.73
2018-07-19T00:29:29.182Z,52.67
2018-07-19T00:31:57.403Z,52.34
2018-07-19T00:34:25.613Z,52.34
2018-07-19T00:36:53.836Z,52.68
2018-07-19T00:39:22.077Z,53.03
2018-07-19T00:41:50.281Z,52.29
2018-07-19T00:44:18.526Z,52.09
2018-07-19T00:46:47.032Z,52.30
2018-07-19T00:49:15.288Z,52.67
2018-07-19T00:51:43.513Z,53.48
2018-07-19T00:54:11.724Z,53.53
2018-07-19T00:56:39.981Z,53.94
2018-07-19T00:59:08.184Z,53.10
2018-07-19T01:01:36.472Z,52.89
2018-07-19T01:04:04.712Z,53.91
2018-07-19T01:06:32.929Z,53.48
2018-07-19T01:09:01.138Z,54.22
2018-07-19T01:11:29.344Z,54.01
2018-07-19T01:13:57.572Z,54.45
2018-07-19T01:16:25.789Z,54.69
2018-07-19T01:18:54.014Z,53.31
2018-07-19T01:21:22.265Z,54.05
2018-07-19T01:23:50.476Z,53.43
2018-07-19T01:26:18.698Z,53.62
2018-07-19T01:28:46.912Z,53.05
2018-07-19T01:31:15.144Z,53.56
2018-07-19T01:33:43.368Z,53.83
2018-07-19T01:36:11.589Z,53.73
2018-07-19T01:38:39.827Z,53.08
2018-07-19T01:41:19.289Z,54.15
2018-07-19T01:43:47.541Z,53.77
2018-07-19T01:46:15.752Z,54.05
2018-07-19T01:48:43.970Z,54.39
2018-07-19T01:51:12.184Z,53.43
2018-07-19T01:53:40.428Z,53.93
2018-07-19T01:56:08.637Z,54.72
2018-07-19T01:58:36.854Z,54.43
2018-07-19T02:01:05.087Z,52.90
2018-07-19T02:03:33.309Z,54.54
2018-07-19T02:06:01.517Z,54.21
2018-07-19T02:08:29.749Z,54.11
2018-07-19T02:10:57.976Z,53.76
2018-07-19T02:13:26.173Z,53.70
2018-07-19T02:15:54.656Z,54.56
2018-07-19T02:18:22.852Z,54.13
2018-07-19T02:20:51.064Z,53.85
2018-07-19T02:23:19.281Z,55.30
2018-07-19T02:25:47.488Z,55.53
2018-07-19T02:28:15.705Z,54.56
2018-07-19T02:30:43.926Z,55.43
2018-07-19T02:33:12.149Z,54.77
2018-07-19T02:35:40.348Z,55.09
2018-07-19T02:38:08.561Z,56.04
2018-07-19T02:40:36.780Z,55.26
2018-07-19T02:43:05.057Z,55.14
2018-07-19T02:45:33.273Z,55.26
2018-07-19T02:48:01.489Z,55.08
2018-07-19T02:50:29.720Z,55.11
2018-07-19T02:52:57.927Z,54.72
2018-07-19T02:55:26.141Z,54.53
2018-07-19T02:57:54.376Z,54.82
2018-07-19T03:00:22.620Z,55.15
2018-07-19T03:02:50.829Z,55.09
2018-07-19T03:05:19.056Z,54.66
2018-07-19T03:07:47.316Z,54.50
2018-07-19T03:10:15.504Z,54.58
2018-07-19T03:12:43.734Z,54.46
2018-07-19T03:15:11.949Z,54.13
2018-07-19T03:17:40.162Z,54.18
2018-07-19T03:20:08.370Z,54.61
2018-07-19T03:22:36.617Z,54.70
2018-07-19T03:25:04.861Z,55.25
2018-07-19T03:27:33.166Z,55.16
2018-07-19T03:30:01.361Z,56.17
2018-07-19T03:32:29.580Z,56.25
2018-07-19T03:34:57.789Z,56.98
2018-07-19T03:37:26.013Z,56.79
2018-07-19T03:39:54.232Z,56.51
2018-07-19T03:42:22.432Z,56.73
2018-07-19T03:44:50.652Z,56.96
2018-07-19T03:47:18.853Z,57.24
2018-07-19T03:49:47.084Z,57.43
2018-07-19T03:52:16.200Z,56.42
2018-07-19T03:54:44.453Z,57.53
2018-07-19T03:57:12.664Z,57.35
2018-07-19T03:59:40.876Z,56.56
2018-07-19T04:02:09.112Z,56.08
2018-07-19T04:04:37.362Z,56.25
2018-07-19T04:07:05.992Z,55.92
2018-07-19T04:09:34.193Z,56.06
2018-07-19T04:12:02.413Z,56.34
2018-07-19T04:14:30.617Z,57.02
2018-07-19T04:16:58.887Z,56.50
2018-07-19T04:19:27.049Z,57.19
2018-07-19T04:21:55.270Z,56.48
2018-07-19T04:24:23.485Z,56.54
2018-07-19T04:26:51.856Z,56.66
2018-07-19T04:29:21.516Z,57.72
2018-07-19T04:31:49.729Z,56.82
2018-07-19T04:34:17.989Z,56.61
2018-07-19T04:36:46.207Z,57.09
2018-07-19T04:39:14.433Z,57.53
2018-07-19T04:41:42.645Z,57.26
2018-07-19T04:44:10.872Z,57.54
2018-07-19T04:46:39.108Z,57.29
2018-07-19T04:49:07.353Z,57.54
2018-07-19T04:51:35.576Z,57.53
2018-07-19T04:54:03.821Z,57.64
2018-07-19T04:56:32.100Z,57.92
2018-07-19T04:59:00.341Z,57.72
2018-07-19T05:01:28.565Z,57.95
2018-07-19T05:03:56.821Z,57.53
2018-07-19T05:06:25.042Z,56.98
2018-07-19T05:08:53.248Z,57.00
2018-07-19T05:11:21.456Z,57.33
2018-07-19T05:13:49.688Z,57.51
2018-07-19T05:16:17.913Z,57.37
2018-07-19T05:18:46.136Z,57.21
2018-07-19T05:21:14.356Z,57.82
2018-07-19T05:23:43.420Z,57.52
2018-07-19T05:26:11.691Z,58.29
2018-07-19T05:28:39.908Z,57.38
2018-07-19T05:31:08.148Z,57.60
2018-07-19T05:33:36.388Z,57.23
2018-07-19T05:36:04.617Z,57.95
2018-07-19T05:38:32.849Z,57.85
2018-07-19T05:41:01.073Z,57.74
2018-07-19T05:43:29.288Z,57.33
2018-07-19T05:45:57.561Z,57.88
2018-07-19T05:48:25.774Z,57.95
2018-07-19T05:50:54.029Z,57.64
2018-07-19T05:53:22.299Z,57.79
2018-07-19T05:55:50.500Z,57.11
2018-07-19T05:58:18.998Z,57.54
2018-07-19T06:00:47.208Z,57.46
2018-07-19T06:03:15.468Z,57.42
2018-07-19T06:05:43.850Z,58.07
2018-07-19T06:08:12.140Z,57.04
2018-07-19T06:10:40.543Z,58.07
2018-07-19T06:13:08.860Z,57.51
2018-07-19T06:15:37.080Z,57.12
2018-07-19T06:18:05.293Z,56.79
2018-07-19T06:20:33.509Z,58.26
2018-07-19T06:23:01.720Z,57.54
2018-07-19T06:25:29.968Z,56.27
2018-07-19T06:27:58.221Z,56.62
2018-07-19T06:30:26.450Z,57.11
2018-07-19T06:32:54.647Z,55.75
2018-07-19T06:35:22.868Z,57.31
2018-07-19T06:37:51.149Z,56.25
2018-07-19T06:40:19.376Z,55.65
2018-07-19T06:42:47.604Z,55.29
2018-07-19T06:45:15.873Z,54.52
2018-07-19T06:47:44.381Z,70.75
2018-07-19T06:50:12.618Z,73.11
2018-07-19T06:52:40.980Z,76.08
2018-07-19T06:55:09.224Z,77.76
2018-07-19T06:57:37.543Z,78.01
2018-07-19T07:00:07.269Z,79.74
2018-07-19T07:02:35.473Z,78.93
2018-07-19T07:05:03.769Z,78.43
2018-07-19T07:07:32.005Z,78.68
2018-07-19T07:10:00.218Z,80.24
2018-07-19T07:12:28.437Z,79.46
2018-07-19T07:14:56.679Z,79.99
2018-07-19T07:17:24.864Z,78.92
2018-07-19T07:19:53.076Z,78.63
2018-07-19T07:22:21.300Z,79.18
2018-07-19T07:24:49.548Z,77.50
2018-07-19T07:27:17.789Z,77.34
2018-07-19T07:29:46.008Z,78.34
2018-07-19T07:32:14.236Z,76.00
2018-07-19T07:34:42.486Z,76.13
2018-07-19T07:37:10.721Z,77.33
2018-07-19T07:39:38.920Z,76.35
2018-07-19T07:42:07.169Z,73.87
2018-07-19T07:44:35.401Z,75.08
2018-07-19T07:47:03.600Z,70.86
2018-07-19T07:49:31.832Z,72.91
2018-07-19T07:52:00.256Z,74.05
2018-07-19T07:54:28.489Z,75.78
2018-07-19T07:56:56.704Z,76.69
2018-07-19T07:59:24.948Z,75.26
2018-07-19T08:01:53.136Z,76.53
2018-07-19T08:04:21.392Z,75.43
2018-07-19T08:06:49.632Z,75.24
2018-07-19T08:09:17.868Z,75.45
2018-07-19T08:11:46.097Z,75.10
2018-07-19T08:14:14.297Z,69.39
2018-07-19T08:16:42.525Z,70.37
2018-07-19T08:19:10.744Z,68.67
2018-07-19T08:21:39.024Z,67.09
2018-07-19T08:24:07.197Z,67.15
2018-07-19T08:26:35.449Z,65.93
2018-07-19T08:29:03.734Z,66.34
2018-07-19T08:31:31.944Z,63.31
2018-07-19T08:34:00.165Z,63.68
2018-07-19T08:36:28.369Z,60.46
2018-07-19T08:38:56.628Z,61.71
2018-07-19T08:41:24.825Z,62.45
2018-07-19T08:43:53.060Z,63.30
2018-07-19T08:46:21.273Z,61.75
2018-07-19T08:48:49.524Z,67.14
2018-07-19T08:51:17.761Z,65.22
2018-07-19T08:53:45.981Z,64.39
2018-07-19T08:56:14.229Z,63.02
2018-07-19T08:58:42.472Z,61.58
2018-07-19T09:01:10.721Z,59.35
2018-07-19T09:03:38.937Z,62.34
2018-07-19T09:06:07.177Z,61.47
2018-07-19T09:08:35.459Z,60.67
2018-07-19T09:11:03.656Z,60.45
2018-07-19T09:13:31.880Z,59.87
2018-07-19T09:16:00.109Z,59.18
2018-07-19T09:18:28.332Z,60.49
2018-07-19T09:20:56.562Z,58.30
2018-07-19T09:23:24.776Z,60.06
2018-07-19T09:25:53.634Z,58.76
2018-07-19T09:28:21.922Z,59.22
2018-07-19T09:30:50.194Z,55.95
2018-07-19T09:33:18.420Z,57.22
2018-07-19T09:35:46.643Z,57.89
2018-07-19T09:38:14.874Z,56.13
2018-07-19T09:40:43.117Z,56.38
2018-07-19T09:43:11.353Z,55.63
2018-07-19T09:45:39.605Z,53.51
2018-07-19T09:48:07.840Z,53.48
2018-07-19T09:50:36.065Z,53.33
2018-07-19T09:53:04.316Z,53.13
2018-07-19T09:55:32.540Z,52.17
2018-07-19T09:58:00.781Z,49.91
2018-07-19T10:00:34.489Z,50.42
2018-07-19T10:03:02.718Z,50.00
2018-07-19T10:05:30.928Z,49.78
2018-07-19T10:07:59.138Z,49.37
2018-07-19T10:10:27.412Z,48.49
2018-07-19T10:12:55.669Z,46.82
2018-07-19T10:15:23.947Z,46.54
2018-07-19T10:17:52.153Z,48.44
2018-07-19T10:20:20.464Z,48.21
2018-07-19T10:22:48.777Z,46.84
2018-07-19T10:25:17.436Z,47.25
2018-07-19T10:27:45.713Z,45.67
2018-07-19T10:30:13.947Z,44.43
2018-07-19T10:32:42.171Z,43.99
2018-07-19T10:35:10.391Z,45.07
2018-07-19T10:37:38.665Z,43.19
2018-07-19T10:40:06.957Z,44.13
2018-07-19T10:42:35.188Z,42.99
2018-07-19T10:45:03.480Z,45.25
2018-07-19T10:47:31.729Z,44.61
2018-07-19T10:49:59.933Z,45.87
2018-07-19T10:52:28.168Z,44.22
2018-07-19T10:54:56.374Z,43.45
2018-07-19T10:57:24.637Z,44.43
2018-07-19T10:59:52.828Z,43.05
2018-07-19T11:02:21.069Z,42.21
2018-07-19T11:04:49.264Z,43.33
2018-07-19T11:07:17.608Z,41.65
2018-07-19T11:09:45.923Z,41.09
2018-07-19T11:12:14.056Z,41.03
2018-07-19T11:14:42.271Z,40.23
2018-07-19T11:17:10.468Z,38.88
2018-07-19T11:19:38.677Z,40.02
2018-07-19T11:22:07.108Z,39.00
2018-07-19T11:24:35.344Z,37.76
2018-07-19T11:27:03.550Z,38.14
2018-07-19T11:29:31.801Z,37.81
2018-07-19T11:32:00.013Z,36.82
2018-07-19T11:34:28.244Z,36.83
2018-07-19T11:36:56.476Z,38.28
2018-07-19T11:39:24.710Z,38.50
2018-07-19T11:41:53.405Z,38.42
2018-07-19T11:44:21.621Z,38.54
2018-07-19T11:46:49.859Z,38.06
2018-07-19T11:49:18.072Z,38.60
2018-07-19T11:51:46.305Z,40.39
2018-07-19T11:54:14.532Z,40.99
2018-07-19T11:56:42.733Z,39.65
2018-07-19T11:59:10.953Z,40.35
2018-07-19T12:01:39.204Z,42.33
2018-07-19T12:04:07.401Z,42.36
2018-07-19T12:06:35.660Z,41.05
2018-07-19T12:09:05.916Z,40.33
2018-07-19T12:11:34.177Z,39.37
2018-07-19T12:14:02.421Z,38.17
2018-07-19T12:16:30.645Z,37.00
2018-07-19T12:18:58.881Z,35.95
2018-07-19T12:21:27.113Z,34.26
2018-07-19T12:23:55.690Z,35.13
2018-07-19T12:26:23.920Z,35.34
2018-07-19T12:28:52.673Z,34.57
2018-07-19T12:31:20.933Z,33.94
2018-07-19T12:33:49.133Z,33.36
2018-07-19T12:36:17.362Z,33.91
2018-07-19T12:38:45.569Z,32.75
2018-07-19T12:41:13.804Z,32.90
2018-07-19T12:43:42.031Z,33.33
2018-07-19T12:46:10.253Z,32.33
2018-07-19T12:48:38.459Z,31.49
2018-07-19T12:51:06.703Z,31.61
2018-07-19T12:53:34.929Z,31.30
2018-07-19T12:56:03.225Z,30.92
2018-07-19T12:58:31.449Z,30.66
2018-07-19T13:00:59.665Z,31.35
2018-07-19T13:03:27.900Z,31.31
2018-07-19T13:05:56.140Z,31.54
2018-07-19T13:08:24.351Z,30.79
2018-07-19T13:10:52.564Z,31.22
2018-07-19T13:13:21.402Z,30.56
2018-07-19T13:15:49.633Z,30.49
2018-07-19T13:18:17.877Z,30.25
2018-07-19T13:20:46.105Z,30.57
2018-07-19T13:23:14.309Z,29.22
2018-07-19T13:25:42.553Z,29.00
2018-07-19T13:28:10.773Z,29.34
2018-07-19T13:30:39.027Z,29.84
2018-07-19T13:33:07.272Z,29.89
2018-07-19T13:35:35.501Z,29.37
2018-07-19T13:38:03.740Z,31.07
2018-07-19T13:40:32.067Z,30.98
2018-07-19T13:43:00.206Z,30.75
2018-07-19T13:45:28.452Z,30.23
2018-07-19T13:47:56.673Z,30.32
2018-07-19T13:50:24.918Z,30.36
2018-07-19T13:53:04.416Z,29.38
2018-07-19T13:55:32.649Z,29.47
2018-07-19T13:58:00.880Z,30.90
2018-07-19T14:00:29.097Z,30.55
2018-07-19T14:02:57.321Z,31.05
2018-07-19T14:05:25.556Z,32.58
2018-07-19T14:07:53.778Z,29.95
2018-07-19T14:10:21.997Z,30.61
2018-07-19T14:12:50.232Z,31.65
2018-07-19T14:15:18.448Z,30.42
2018-07-19T14:17:46.673Z,29.02
2018-07-19T14:20:14.877Z,29.26
2018-07-19T14:22:43.109Z,29.24
2018-07-19T14:25:11.316Z,27.92
2018-07-19T14:27:39.552Z,30.04
2018-07-19T14:30:07.837Z,28.00
2018-07-19T14:32:36.077Z,28.52
2018-07-19T14:35:04.597Z,29.19
2018-07-19T14:37:32.817Z,30.60
2018-07-19T14:40:01.053Z,29.65
2018-07-19T14:42:29.309Z,27.61
2018-07-19T14:44:57.545Z,28.90
2018-07-19T14:47:25.778Z,28.90
2018-07-19T14:49:53.986Z,29.48
2018-07-19T14:52:22.248Z,28.72
2018-07-19T14:54:50.482Z,28.99
2018-07-19T14:57:18.695Z,29.86
2018-07-19T14:59:46.924Z,29.26
2018-07-19T15:02:15.212Z,29.54
2018-07-19T15:04:43.452Z,29.50
2018-07-19T15:07:11.665Z,29.38
2018-07-19T15:09:39.921Z,29.94
2018-07-19T15:12:08.164Z,29.86
2018-07-19T15:14:36.400Z,29.22
2018-07-19T15:17:04.697Z,29.11
2018-07-19T15:19:32.913Z,29.15
2018-07-19T15:22:01.141Z,28.08
2018-07-19T15:24:29.360Z,27.92
2018-07-19T15:26:57.580Z,27.05
2018-07-19T15:29:25.784Z,27.91
2018-07-19T15:31:54.036Z,29.06
2018-07-19T15:34:22.293Z,28.17
2018-07-19T15:36:50.517Z,29.77
2018-07-19T15:39:18.720Z,29.20
2018-07-19T15:41:46.961Z,28.67
2018-07-19T15:44:15.209Z,29.38
2018-07-19T15:46:43.417Z,29.25
2018-07-19T15:49:11.629Z,28.61
2018-07-19T15:51:39.853Z,28.62
2018-07-19T15:54:08.088Z,29.26
2018-07-19T15:56:36.333Z,29.10
2018-07-19T15:59:04.585Z,28.67
2018-07-19T16:01:32.832Z,29.05
2018-07-19T16:04:01.016Z,29.56
2018-07-19T16:06:29.241Z,27.83
2018-07-19T16:08:57.460Z,27.62
2018-07-19T16:11:25.696Z,27.91
2018-07-19T16:13:53.964Z,26.40
2018-07-19T16:16:22.136Z,26.34
2018-07-19T16:18:50.399Z,26.53
2018-07-19T16:21:18.605Z,26.58
2018-07-19T16:23:46.824Z,25.80
2018-07-19T16:26:15.091Z,25.81
2018-07-19T16:28:43.301Z,25.14
2018-07-19T16:31:11.536Z,25.82
2018-07-19T16:33:39.805Z,25.47
2018-07-19T16:36:08.049Z,25.67
2018-07-19T16:38:36.284Z,25.85
2018-07-19T16:41:04.506Z,26.04
2018-07-19T16:43:32.721Z,27.52
2018-07-19T16:46:00.969Z,28.07
2018-07-19T16:48:29.189Z,28.35
2018-07-19T16:50:57.421Z,29.74
2018-07-19T16:53:25.788Z,29.96
2018-07-19T16:55:54.033Z,29.39
2018-07-19T16:58:22.345Z,29.25
2018-07-19T17:00:50.553Z,29.51
2018-07-19T17:03:18.884Z,30.43
2018-07-19T17:05:47.096Z,31.34
2018-07-19T17:08:15.336Z,31.96
2018-07-19T17:10:43.601Z,31.61
2018-07-19T17:13:12.109Z,31.56
2018-07-19T17:15:40.312Z,31.69
2018-07-19T17:18:08.660Z,32.66
2018-07-19T17:20:36.981Z,32.89
2018-07-19T17:23:05.226Z,32.63
2018-07-19T17:25:33.464Z,32.40
2018-07-19T17:28:01.677Z,33.42
2018-07-19T17:30:29.910Z,33.70
2018-07-19T17:32:58.116Z,32.65
2018-07-19T17:35:26.350Z,32.38
2018-07-19T17:37:54.596Z,32.29
2018-07-19T17:40:22.861Z,32.78
2018-07-19T17:42:51.072Z,33.86
2018-07-19T17:45:19.301Z,33.33
2018-07-19T17:47:47.509Z,33.44
2018-07-19T17:50:15.725Z,34.43
2018-07-19T17:52:44.801Z,33.90
2018-07-19T17:55:13.029Z,35.05
2018-07-19T17:57:41.241Z,35.04
2018-07-19T18:00:09.517Z,35.74
2018-07-19T18:02:37.734Z,35.31
2018-07-19T18:05:06.139Z,36.50
2018-07-19T18:07:34.356Z,35.16
2018-07-19T18:10:02.581Z,36.16
2018-07-19T18:12:30.803Z,37.30
2018-07-19T18:14:59.016Z,35.36
2018-07-19T18:17:27.233Z,35.43
2018-07-19T18:19:55.444Z,34.54
2018-07-19T18:22:23.679Z,35.23
2018-07-19T18:24:51.881Z,36.01
2018-07-19T18:27:20.104Z,36.02
2018-07-19T18:29:48.322Z,36.49
2018-07-19T18:32:16.536Z,36.36
2018-07-19T18:34:44.750Z,36.13
2018-07-19T18:37:12.977Z,36.48
2018-07-19T18:39:41.242Z,36.78
2018-07-19T18:42:09.527Z,36.65
2018-07-19T18:44:37.747Z,36.18
2018-07-19T18:47:06.099Z,36.47
2018-07-19T18:49:34.325Z,36.05
2018-07-19T18:52:02.549Z,36.46
2018-07-19T18:54:30.776Z,37.46
2018-07-19T18:56:58.977Z,37.62
2018-07-19T18:59:27.193Z,37.49
2018-07-19T19:01:55.414Z,38.24
2018-07-19T19:04:23.637Z,39.00
2018-07-19T19:06:51.850Z,39.69
2018-07-19T19:09:20.056Z,40.16
2018-07-19T19:11:48.294Z,40.65
2018-07-19T19:14:16.500Z,41.46
2018-07-19T19:16:44.744Z,41.14
2018-07-19T19:19:12.961Z,41.23
2018-07-19T19:21:41.172Z,41.73
2018-07-19T19:24:09.390Z,41.57
2018-07-19T19:26:37.628Z,41.86
2018-07-19T19:29:05.856Z,41.36
2018-07-19T19:31:34.057Z,42.02
2018-07-19T19:34:02.272Z,42.43
2018-07-19T19:36:30.573Z,42.58
2018-07-19T19:38:58.789Z,42.94
2018-07-19T19:41:27.621Z,41.98
2018-07-19T19:43:55.830Z,43.32
2018-07-19T19:46:24.087Z,43.54
2018-07-19T19:48:52.288Z,43.90
2018-07-19T19:51:20.501Z,43.57
2018-07-19T19:53:48.733Z,43.51
2018-07-19T19:56:16.948Z,43.87
2018-07-19T19:58:45.225Z,43.93
2018-07-19T20:01:13.380Z,44.01
2018-07-19T20:03:41.604Z,44.80
2018-07-19T20:06:09.852Z,45.55
2018-07-19T20:08:38.085Z,45.85
2018-07-19T20:11:06.330Z,45.63
2018-07-19T20:13:34.536Z,45.07
2018-07-19T20:16:02.778Z,45.06
2018-07-19T20:18:31.032Z,45.45
2018-07-19T20:20:59.239Z,46.08
2018-07-19T20:23:27.477Z,46.50
2018-07-19T20:25:56.161Z,47.44
2018-07-19T20:28:24.372Z,47.14
2018-07-19T20:30:52.604Z,47.27
2018-07-19T20:33:20.836Z,47.28
2018-07-19T20:35:49.091Z,47.57
2018-07-19T20:38:17.313Z,48.04
2018-07-19T20:40:45.520Z,48.37
2018-07-19T20:43:13.765Z,48.33
2018-07-19T20:45:41.993Z,48.55
2018-07-19T20:48:10.309Z,48.45
2018-07-19T20:50:38.525Z,47.92
2018-07-19T20:53:06.736Z,48.51
2018-07-19T20:55:35.039Z,48.11
2018-07-19T20:58:03.273Z,48.25
2018-07-19T21:00:31.497Z,48.82
2018-07-19T21:02:59.710Z,50.29
2018-07-19T21:05:27.961Z,50.22
2018-07-19T21:07:56.280Z,51.60
2018-07-19T21:10:24.507Z,52.58
2018-07-19T21:12:52.729Z,51.82
2018-07-19T21:15:20.972Z,52.71
2018-07-19T21:17:49.223Z,51.29
2018-07-19T21:20:17.460Z,50.73
2018-07-19T21:22:45.695Z,52.06
2018-07-19T21:25:13.946Z,52.50
2018-07-19T21:27:42.205Z,50.79
2018-07-19T21:30:10.505Z,50.11
2018-07-19T21:32:38.708Z,50.68
2018-07-19T21:35:06.945Z,50.62
2018-07-19T21:37:35.144Z,50.96
2018-07-19T21:40:03.400Z,50.62
2018-07-19T21:42:31.612Z,49.48
2018-07-19T21:44:59.844Z,49.85
2018-07-19T21:47:28.056Z,49.32
2018-07-19T21:49:56.314Z,50.26
2018-07-19T21:52:24.545Z,48.40
2018-07-19T21:54:52.773Z,48.48
2018-07-19T21:57:20.980Z,48.30
2018-07-19T21:59:49.209Z,48.63
2018-07-19T22:02:17.448Z,47.99
2018-07-19T22:04:45.649Z,49.17
2018-07-19T22:07:13.865Z,48.56
2018-07-19T22:09:42.126Z,48.46
2018-07-19T22:12:10.413Z,49.14
2018-07-19T22:14:38.664Z,49.47
2018-07-19T22:17:06.897Z,50.06
2018-07-19T22:19:35.103Z,49.68
2018-07-19T22:22:03.340Z,50.54
2018-07-19T22:24:31.572Z,49.39
2018-07-19T22:26:59.809Z,49.70
2018-07-19T22:29:28.049Z,48.95
2018-07-19T22:31:56.245Z,50.18
2018-07-19T22:34:24.463Z,49.47
2018-07-19T22:36:52.679Z,50.51
2018-07-19T22:39:20.900Z,49.42
2018-07-19T22:41:49.097Z,50.34
2018-07-19T22:44:17.356Z,49.90
2018-07-19T22:46:45.634Z,49.96
2018-07-19T22:49:13.880Z,51.33
2018-07-19T22:51:42.108Z,50.59
2018-07-19T22:54:10.320Z,50.05
2018-07-19T22:56:38.537Z,50.64
2018-07-19T22:59:06.824Z,49.70
2018-07-19T23:01:35.045Z,50.93
2018-07-19T23:04:03.269Z,50.47
2018-07-19T23:06:31.513Z,51.63
2018-07-19T23:08:59.737Z,51.84
2018-07-19T23:11:27.989Z,51.43
2018-07-19T23:13:56.251Z,51.28
2018-07-19T23:16:24.571Z,51.96
2018-07-19T23:18:52.772Z,50.93
2018-07-19T23:21:21.000Z,51.25
2018-07-19T23:23:49.205Z,51.31
2018-07-19T23:26:17.415Z,51.37
2018-07-19T23:28:45.648Z,52.31
2018-07-19T23:31:13.876Z,51.69
2018-07-19T23:33:42.134Z,51.28
2018-07-19T23:36:16.741Z,51.43
2018-07-19T23:38:55.258Z,51.92
2018-07-19T23:41:28.476Z,51.98
2018-07-19T23:44:02.205Z,52.45
2018-07-19T23:46:34.372Z,52.09
2018-07-19T23:49:06.946Z,52.53
2018-07-19T23:51:36.351Z,52.43
2018-07-19T23:54:04.587Z,52.53
2018-07-19T23:56:33.240Z,53.27
2018-07-19T23:59:01.461Z,52.45
